sensor_id;sensor_type;location;lat;lon;timestamp;P1;durP1;ratioP1;P2;durP2;ratioP2
16442;SDS011;8331;51.654;14.376;2022-12-18T00:02:10;37.73;;;15.13;;
16442;SDS011;8331;51.654;14.376;2022-12-18T00:04:36;32.77;;;15.07;;
16442;SDS011;8331;51.654;14.376;2022-12-18T00:07:03;41.80;;;14.63;;
16442;SDS011;8331;51.654;14.376;2022-12-18T00:09:30;34.07;;;14.70;;
16442;SDS011;8331;51.654;14.376;2022-12-18T00:12:06;35.03;;;13.87;;
16442;SDS011;8331;51.654;14.376;2022-12-18T00:14:41;32.20;;;14.53;;
16442;SDS011;8331;51.654;14.376;2022-12-18T00:17:11;37.93;;;14.47;;
16442;SDS011;8331;51.654;14.376;2022-12-18T00:19:37;36.03;;;14.70;;
16442;SDS011;8331;51.654;14.376;2022-12-18T00:22:04;30.50;;;12.97;;
16442;SDS011;8331;51.654;14.376;2022-12-18T00:24:32;30.47;;;13.87;;
16442;SDS011;8331;51.654;14.376;2022-12-18T00:26:58;31.70;;;14.33;;
16442;SDS011;8331;51.654;14.376;2022-12-18T00:29:25;33.40;;;14.20;;
16442;SDS011;8331;51.654;14.376;2022-12-18T00:31:52;36.90;;;15.40;;
16442;SDS011;8331;51.654;14.376;2022-12-18T00:34:19;37.57;;;15.33;;
16442;SDS011;8331;51.654;14.376;2022-12-18T00:36:46;35.63;;;15.00;;
16442;SDS011;8331;51.654;14.376;2022-12-18T00:39:13;37.07;;;15.13;;
16442;SDS011;8331;51.654;14.376;2022-12-18T00:41:42;36.57;;;16.23;;
16442;SDS011;8331;51.654;14.376;2022-12-18T00:44:27;35.00;;;15.47;;
16442;SDS011;8331;51.654;14.376;2022-12-18T00:46:54;38.87;;;15.17;;
16442;SDS011;8331;51.654;14.376;2022-12-18T00:49:20;38.10;;;15.77;;
16442;SDS011;8331;51.654;14.376;2022-12-18T00:51:47;33.70;;;16.03;;
16442;SDS011;8331;51.654;14.376;2022-12-18T00:54:14;37.27;;;15.37;;
16442;SDS011;8331;51.654;14.376;2022-12-18T00:56:41;38.00;;;15.73;;
16442;SDS011;8331;51.654;14.376;2022-12-18T00:59:16;34.87;;;16.03;;
16442;SDS011;8331;51.654;14.376;2022-12-18T01:01:43;33.90;;;15.50;;
16442;SDS011;8331;51.654;14.376;2022-12-18T01:04:09;37.30;;;16.17;;
16442;SDS011;8331;51.654;14.376;2022-12-18T01:06:36;34.83;;;15.23;;
16442;SDS011;8331;51.654;14.376;2022-12-18T01:09:03;34.10;;;15.47;;
16442;SDS011;8331;51.654;14.376;2022-12-18T01:11:29;31.47;;;15.23;;
16442;SDS011;8331;51.654;14.376;2022-12-18T01:13:56;36.00;;;14.63;;
16442;SDS011;8331;51.654;14.376;2022-12-18T01:16:26;39.30;;;15.17;;
16442;SDS011;8331;51.654;14.376;2022-12-18T01:18:53;31.70;;;13.60;;
16442;SDS011;8331;51.654;14.376;2022-12-18T01:21:20;34.33;;;14.30;;
16442;SDS011;8331;51.654;14.376;2022-12-18T01:23:50;31.97;;;14.13;;
16442;SDS011;8331;51.654;14.376;2022-12-18T01:26:17;32.93;;;13.77;;
16442;SDS011;8331;51.654;14.376;2022-12-18T01:28:43;30.40;;;13.97;;
16442;SDS011;8331;51.654;14.376;2022-12-18T01:31:11;31.23;;;14.60;;
16442;SDS011;8331;51.654;14.376;2022-12-18T01:33:37;31.03;;;14.60;;
16442;SDS011;8331;51.654;14.376;2022-12-18T01:36:05;30.77;;;13.40;;
16442;SDS011;8331;51.654;14.376;2022-12-18T01:38:31;34.73;;;14.40;;
16442;SDS011;8331;51.654;14.376;2022-12-18T01:40:59;38.87;;;16.00;;
16442;SDS011;8331;51.654;14.376;2022-12-18T01:43:43;33.93;;;14.57;;
16442;SDS011;8331;51.654;14.376;2022-12-18T01:46:10;37.47;;;15.07;;
16442;SDS011;8331;51.654;14.376;2022-12-18T01:48:37;36.63;;;15.80;;
16442;SDS011;8331;51.654;14.376;2022-12-18T01:51:05;41.47;;;15.00;;
16442;SDS011;8331;51.654;14.376;2022-12-18T01:53:32;38.07;;;15.33;;
16442;SDS011;8331;51.654;14.376;2022-12-18T01:55:59;35.43;;;15.83;;
16442;SDS011;8331;51.654;14.376;2022-12-18T01:58:40;33.90;;;14.93;;
16442;SDS011;8331;51.654;14.376;2022-12-18T02:01:08;33.93;;;14.60;;
16442;SDS011;8331;51.654;14.376;2022-12-18T02:03:34;31.90;;;13.70;;
16442;SDS011;8331;51.654;14.376;2022-12-18T02:16:38;27.20;;;12.50;;
16442;SDS011;8331;51.654;14.376;2022-12-18T02:19:16;28.83;;;13.03;;
16442;SDS011;8331;51.654;14.376;2022-12-18T02:24:24;25.20;;;12.37;;
16442;SDS011;8331;51.654;14.376;2022-12-18T02:26:58;31.57;;;13.20;;
16442;SDS011;8331;51.654;14.376;2022-12-18T02:29:29;33.33;;;13.43;;
16442;SDS011;8331;51.654;14.376;2022-12-18T02:32:00;26.17;;;12.57;;
16442;SDS011;8331;51.654;14.376;2022-12-18T02:34:30;28.87;;;13.13;;
16442;SDS011;8331;51.654;14.376;2022-12-18T02:36:58;42.10;;;14.83;;
16442;SDS011;8331;51.654;14.376;2022-12-18T02:39:26;27.57;;;12.73;;
16442;SDS011;8331;51.654;14.376;2022-12-18T02:42:02;30.17;;;13.90;;
16442;SDS011;8331;51.654;14.376;2022-12-18T02:44:35;25.43;;;12.53;;
16442;SDS011;8331;51.654;14.376;2022-12-18T02:47:03;32.10;;;12.70;;
16442;SDS011;8331;51.654;14.376;2022-12-18T02:55:48;28.37;;;12.27;;
16442;SDS011;8331;51.654;14.376;2022-12-18T02:58:05;28.83;;;12.53;;
16442;SDS011;8331;51.654;14.376;2022-12-18T03:03:18;30.70;;;11.83;;
16442;SDS011;8331;51.654;14.376;2022-12-18T03:05:53;29.47;;;12.40;;
16442;SDS011;8331;51.654;14.376;2022-12-18T03:08:27;34.57;;;13.37;;
16442;SDS011;8331;51.654;14.376;2022-12-18T03:11:01;27.97;;;12.53;;
16442;SDS011;8331;51.654;14.376;2022-12-18T03:16:05;26.83;;;11.97;;
16442;SDS011;8331;51.654;14.376;2022-12-18T03:18:42;28.57;;;13.07;;
16442;SDS011;8331;51.654;14.376;2022-12-18T03:21:12;31.83;;;12.77;;
16442;SDS011;8331;51.654;14.376;2022-12-18T03:23:40;30.67;;;13.20;;
16442;SDS011;8331;51.654;14.376;2022-12-18T03:26:12;30.93;;;13.13;;
16442;SDS011;8331;51.654;14.376;2022-12-18T03:28:42;31.93;;;12.47;;
16442;SDS011;8331;51.654;14.376;2022-12-18T03:31:10;33.00;;;13.70;;
16442;SDS011;8331;51.654;14.376;2022-12-18T03:36:06;38.43;;;13.57;;
16442;SDS011;8331;51.654;14.376;2022-12-18T03:38:33;26.67;;;12.47;;
16442;SDS011;8331;51.654;14.376;2022-12-18T03:41:06;29.90;;;13.37;;
16442;SDS011;8331;51.654;14.376;2022-12-18T03:43:52;36.00;;;13.27;;
16442;SDS011;8331;51.654;14.376;2022-12-18T03:49:12;31.87;;;12.97;;
16442;SDS011;8331;51.654;14.376;2022-12-18T03:54:10;33.23;;;12.93;;
16442;SDS011;8331;51.654;14.376;2022-12-18T03:56:44;28.30;;;11.73;;
16442;SDS011;8331;51.654;14.376;2022-12-18T03:59:12;25.83;;;12.03;;
16442;SDS011;8331;51.654;14.376;2022-12-18T04:01:42;25.87;;;11.93;;
16442;SDS011;8331;51.654;14.376;2022-12-18T04:04:13;25.37;;;12.77;;
16442;SDS011;8331;51.654;14.376;2022-12-18T04:06:42;25.57;;;11.83;;
16442;SDS011;8331;51.654;14.376;2022-12-18T04:09:11;25.33;;;13.03;;
16442;SDS011;8331;51.654;14.376;2022-12-18T04:11:42;25.47;;;11.83;;
16442;SDS011;8331;51.654;14.376;2022-12-18T04:14:13;25.43;;;11.33;;
16442;SDS011;8331;51.654;14.376;2022-12-18T04:16:43;30.60;;;13.20;;
16442;SDS011;8331;51.654;14.376;2022-12-18T04:19:14;24.57;;;11.67;;
16442;SDS011;8331;51.654;14.376;2022-12-18T04:21:43;27.20;;;11.90;;
16442;SDS011;8331;51.654;14.376;2022-12-18T04:24:12;30.23;;;12.93;;
16442;SDS011;8331;51.654;14.376;2022-12-18T04:26:45;29.30;;;12.70;;
16442;SDS011;8331;51.654;14.376;2022-12-18T04:29:15;31.70;;;13.10;;
16442;SDS011;8331;51.654;14.376;2022-12-18T04:31:41;27.97;;;12.63;;
16442;SDS011;8331;51.654;14.376;2022-12-18T04:34:08;27.80;;;13.13;;
16442;SDS011;8331;51.654;14.376;2022-12-18T04:36:41;29.07;;;12.53;;
16442;SDS011;8331;51.654;14.376;2022-12-18T04:39:08;28.10;;;12.70;;
16442;SDS011;8331;51.654;14.376;2022-12-18T04:41:34;29.30;;;13.23;;
16442;SDS011;8331;51.654;14.376;2022-12-18T04:44:02;29.30;;;13.03;;
16442;SDS011;8331;51.654;14.376;2022-12-18T04:46:28;27.80;;;11.97;;
16442;SDS011;8331;51.654;14.376;2022-12-18T04:48:55;24.43;;;12.37;;
16442;SDS011;8331;51.654;14.376;2022-12-18T04:51:22;26.73;;;13.37;;
16442;SDS011;8331;51.654;14.376;2022-12-18T04:53:52;31.20;;;12.87;;
16442;SDS011;8331;51.654;14.376;2022-12-18T04:56:19;30.00;;;12.60;;
16442;SDS011;8331;51.654;14.376;2022-12-18T04:58:45;24.40;;;12.33;;
16442;SDS011;8331;51.654;14.376;2022-12-18T05:01:13;25.67;;;12.90;;
16442;SDS011;8331;51.654;14.376;2022-12-18T05:03:40;27.67;;;12.93;;
16442;SDS011;8331;51.654;14.376;2022-12-18T05:06:07;28.17;;;12.63;;
16442;SDS011;8331;51.654;14.376;2022-12-18T05:08:33;30.47;;;13.27;;
16442;SDS011;8331;51.654;14.376;2022-12-18T05:11:04;29.30;;;13.60;;
16442;SDS011;8331;51.654;14.376;2022-12-18T05:13:31;29.60;;;14.00;;
16442;SDS011;8331;51.654;14.376;2022-12-18T05:15:57;29.57;;;13.27;;
16442;SDS011;8331;51.654;14.376;2022-12-18T05:18:25;30.33;;;13.80;;
16442;SDS011;8331;51.654;14.376;2022-12-18T05:20:52;31.20;;;14.33;;
16442;SDS011;8331;51.654;14.376;2022-12-18T05:23:19;27.33;;;13.53;;
16442;SDS011;8331;51.654;14.376;2022-12-18T05:25:47;32.53;;;13.97;;
16442;SDS011;8331;51.654;14.376;2022-12-18T05:28:14;32.20;;;13.90;;
16442;SDS011;8331;51.654;14.376;2022-12-18T05:30:40;27.20;;;13.30;;
16442;SDS011;8331;51.654;14.376;2022-12-18T05:33:08;29.20;;;13.73;;
16442;SDS011;8331;51.654;14.376;2022-12-18T05:35:34;30.00;;;13.73;;
16442;SDS011;8331;51.654;14.376;2022-12-18T05:38:01;31.13;;;13.70;;
16442;SDS011;8331;51.654;14.376;2022-12-18T05:40:27;31.77;;;14.00;;
16442;SDS011;8331;51.654;14.376;2022-12-18T05:42:55;29.17;;;14.27;;
16442;SDS011;8331;51.654;14.376;2022-12-18T05:45:21;28.63;;;14.00;;
16442;SDS011;8331;51.654;14.376;2022-12-18T05:47:48;26.33;;;13.33;;
16442;SDS011;8331;51.654;14.376;2022-12-18T05:50:14;30.57;;;13.90;;
16442;SDS011;8331;51.654;14.376;2022-12-18T05:52:41;31.67;;;13.97;;
16442;SDS011;8331;51.654;14.376;2022-12-18T05:55:08;33.43;;;14.97;;
16442;SDS011;8331;51.654;14.376;2022-12-18T05:57:34;28.87;;;13.33;;
16442;SDS011;8331;51.654;14.376;2022-12-18T06:00:01;30.83;;;14.07;;
16442;SDS011;8331;51.654;14.376;2022-12-18T06:02:37;30.70;;;14.47;;
16442;SDS011;8331;51.654;14.376;2022-12-18T06:05:04;27.53;;;13.70;;
16442;SDS011;8331;51.654;14.376;2022-12-18T06:07:30;34.10;;;14.53;;
16442;SDS011;8331;51.654;14.376;2022-12-18T06:09:57;27.17;;;14.27;;
16442;SDS011;8331;51.654;14.376;2022-12-18T06:12:24;26.63;;;13.63;;
16442;SDS011;8331;51.654;14.376;2022-12-18T06:14:50;28.57;;;13.03;;
16442;SDS011;8331;51.654;14.376;2022-12-18T06:17:17;28.97;;;13.43;;
16442;SDS011;8331;51.654;14.376;2022-12-18T06:19:43;25.77;;;12.57;;
16442;SDS011;8331;51.654;14.376;2022-12-18T06:22:10;26.20;;;12.87;;
16442;SDS011;8331;51.654;14.376;2022-12-18T06:24:36;22.33;;;11.90;;
16442;SDS011;8331;51.654;14.376;2022-12-18T06:27:03;23.47;;;13.10;;
16442;SDS011;8331;51.654;14.376;2022-12-18T06:29:29;25.53;;;13.37;;
16442;SDS011;8331;51.654;14.376;2022-12-18T06:31:56;27.80;;;13.53;;
16442;SDS011;8331;51.654;14.376;2022-12-18T06:34:23;31.67;;;14.17;;
16442;SDS011;8331;51.654;14.376;2022-12-18T06:36:49;26.93;;;13.70;;
16442;SDS011;8331;51.654;14.376;2022-12-18T06:39:16;21.63;;;12.33;;
16442;SDS011;8331;51.654;14.376;2022-12-18T06:41:42;27.60;;;14.17;;
16442;SDS011;8331;51.654;14.376;2022-12-18T06:44:09;27.33;;;13.57;;
16442;SDS011;8331;51.654;14.376;2022-12-18T06:46:36;20.60;;;12.67;;
16442;SDS011;8331;51.654;14.376;2022-12-18T06:49:04;24.73;;;13.60;;
16442;SDS011;8331;51.654;14.376;2022-12-18T06:51:30;25.27;;;13.33;;
16442;SDS011;8331;51.654;14.376;2022-12-18T06:53:57;19.90;;;12.07;;
16442;SDS011;8331;51.654;14.376;2022-12-18T06:56:23;25.70;;;14.37;;
16442;SDS011;8331;51.654;14.376;2022-12-18T06:58:50;20.50;;;12.47;;
16442;SDS011;8331;51.654;14.376;2022-12-18T07:01:17;22.33;;;12.93;;
16442;SDS011;8331;51.654;14.376;2022-12-18T07:03:43;21.07;;;12.63;;
16442;SDS011;8331;51.654;14.376;2022-12-18T07:06:14;24.77;;;13.23;;
16442;SDS011;8331;51.654;14.376;2022-12-18T07:08:41;23.17;;;12.37;;
16442;SDS011;8331;51.654;14.376;2022-12-18T07:11:08;25.70;;;12.07;;
16442;SDS011;8331;51.654;14.376;2022-12-18T07:13:35;24.70;;;14.10;;
16442;SDS011;8331;51.654;14.376;2022-12-18T07:16:09;24.37;;;12.33;;
16442;SDS011;8331;51.654;14.376;2022-12-18T07:18:44;21.20;;;12.97;;
16442;SDS011;8331;51.654;14.376;2022-12-18T07:21:11;23.10;;;12.37;;
16442;SDS011;8331;51.654;14.376;2022-12-18T07:23:38;24.30;;;13.13;;
16442;SDS011;8331;51.654;14.376;2022-12-18T07:26:10;27.00;;;13.10;;
16442;SDS011;8331;51.654;14.376;2022-12-18T07:28:37;24.53;;;13.70;;
16442;SDS011;8331;51.654;14.376;2022-12-18T07:31:05;25.27;;;14.50;;
16442;SDS011;8331;51.654;14.376;2022-12-18T07:33:32;23.77;;;13.57;;
16442;SDS011;8331;51.654;14.376;2022-12-18T07:36:02;28.57;;;15.07;;
16442;SDS011;8331;51.654;14.376;2022-12-18T07:38:30;26.67;;;14.30;;
16442;SDS011;8331;51.654;14.376;2022-12-18T07:41:07;30.87;;;13.60;;
16442;SDS011;8331;51.654;14.376;2022-12-18T07:43:34;23.40;;;13.57;;
16442;SDS011;8331;51.654;14.376;2022-12-18T07:46:01;19.57;;;13.00;;
16442;SDS011;8331;51.654;14.376;2022-12-18T07:48:28;22.93;;;13.97;;
16442;SDS011;8331;51.654;14.376;2022-12-18T07:50:58;23.07;;;13.27;;
16442;SDS011;8331;51.654;14.376;2022-12-18T07:53:25;23.93;;;13.40;;
16442;SDS011;8331;51.654;14.376;2022-12-18T07:56:11;19.57;;;12.03;;
16442;SDS011;8331;51.654;14.376;2022-12-18T07:58:55;22.00;;;11.80;;
16442;SDS011;8331;51.654;14.376;2022-12-18T08:01:22;22.00;;;12.50;;
16442;SDS011;8331;51.654;14.376;2022-12-18T08:03:49;21.37;;;12.23;;
16442;SDS011;8331;51.654;14.376;2022-12-18T08:06:17;23.27;;;12.00;;
16442;SDS011;8331;51.654;14.376;2022-12-18T08:08:44;21.43;;;11.60;;
16442;SDS011;8331;51.654;14.376;2022-12-18T08:11:10;22.87;;;13.13;;
16442;SDS011;8331;51.654;14.376;2022-12-18T08:13:37;19.47;;;11.23;;
16442;SDS011;8331;51.654;14.376;2022-12-18T08:16:05;19.50;;;11.30;;
16442;SDS011;8331;51.654;14.376;2022-12-18T08:18:32;17.90;;;11.50;;
16442;SDS011;8331;51.654;14.376;2022-12-18T08:21:09;18.90;;;11.57;;
16442;SDS011;8331;51.654;14.376;2022-12-18T08:23:37;22.63;;;12.57;;
16442;SDS011;8331;51.654;14.376;2022-12-18T08:26:08;19.00;;;10.90;;
16442;SDS011;8331;51.654;14.376;2022-12-18T08:28:35;20.40;;;10.50;;
16442;SDS011;8331;51.654;14.376;2022-12-18T08:31:02;24.33;;;14.60;;
16442;SDS011;8331;51.654;14.376;2022-12-18T08:33:28;21.67;;;12.33;;
16442;SDS011;8331;51.654;14.376;2022-12-18T08:35:55;24.90;;;16.00;;
16442;SDS011;8331;51.654;14.376;2022-12-18T08:38:21;29.17;;;17.77;;
16442;SDS011;8331;51.654;14.376;2022-12-18T08:40:49;24.57;;;13.90;;
16442;SDS011;8331;51.654;14.376;2022-12-18T08:43:16;23.90;;;13.90;;
16442;SDS011;8331;51.654;14.376;2022-12-18T08:46:01;26.57;;;15.43;;
16442;SDS011;8331;51.654;14.376;2022-12-18T08:48:27;30.93;;;15.70;;
16442;SDS011;8331;51.654;14.376;2022-12-18T08:50:57;21.40;;;11.80;;
16442;SDS011;8331;51.654;14.376;2022-12-18T08:53:24;18.47;;;11.47;;
16442;SDS011;8331;51.654;14.376;2022-12-18T08:55:50;17.93;;;11.50;;
16442;SDS011;8331;51.654;14.376;2022-12-18T08:58:17;16.97;;;10.57;;
16442;SDS011;8331;51.654;14.376;2022-12-18T09:00:44;18.57;;;10.20;;
16442;SDS011;8331;51.654;14.376;2022-12-18T09:03:11;21.67;;;12.27;;
16442;SDS011;8331;51.654;14.376;2022-12-18T09:05:38;20.53;;;12.17;;
16442;SDS011;8331;51.654;14.376;2022-12-18T09:08:05;21.17;;;11.47;;
16442;SDS011;8331;51.654;14.376;2022-12-18T09:10:32;18.63;;;11.37;;
16442;SDS011;8331;51.654;14.376;2022-12-18T09:13:02;21.27;;;12.10;;
16442;SDS011;8331;51.654;14.376;2022-12-18T09:15:29;22.87;;;12.47;;
16442;SDS011;8331;51.654;14.376;2022-12-18T09:17:55;22.10;;;12.90;;
16442;SDS011;8331;51.654;14.376;2022-12-18T09:20:22;24.60;;;12.73;;
16442;SDS011;8331;51.654;14.376;2022-12-18T09:22:49;24.23;;;12.63;;
16442;SDS011;8331;51.654;14.376;2022-12-18T09:25:15;23.73;;;12.90;;
16442;SDS011;8331;51.654;14.376;2022-12-18T09:27:42;24.07;;;13.17;;
16442;SDS011;8331;51.654;14.376;2022-12-18T09:30:09;24.57;;;13.67;;
16442;SDS011;8331;51.654;14.376;2022-12-18T09:32:35;20.97;;;12.40;;
16442;SDS011;8331;51.654;14.376;2022-12-18T09:35:02;23.27;;;13.53;;
16442;SDS011;8331;51.654;14.376;2022-12-18T09:37:28;25.07;;;12.67;;
16442;SDS011;8331;51.654;14.376;2022-12-18T09:39:55;22.53;;;14.17;;
16442;SDS011;8331;51.654;14.376;2022-12-18T09:42:21;25.50;;;13.00;;
16442;SDS011;8331;51.654;14.376;2022-12-18T09:44:52;21.40;;;12.43;;
16442;SDS011;8331;51.654;14.376;2022-12-18T09:49:47;19.10;;;11.67;;
16442;SDS011;8331;51.654;14.376;2022-12-18T09:52:32;19.00;;;11.27;;
16442;SDS011;8331;51.654;14.376;2022-12-18T09:58:06;23.60;;;12.67;;
16442;SDS011;8331;51.654;14.376;2022-12-18T10:00:34;20.43;;;12.43;;
16442;SDS011;8331;51.654;14.376;2022-12-18T10:03:02;18.07;;;11.33;;
16442;SDS011;8331;51.654;14.376;2022-12-18T10:08:01;21.43;;;11.90;;
16442;SDS011;8331;51.654;14.376;2022-12-18T10:10:33;21.53;;;12.07;;
16442;SDS011;8331;51.654;14.376;2022-12-18T10:15:36;21.70;;;11.27;;
16442;SDS011;8331;51.654;14.376;2022-12-18T10:20:48;20.43;;;11.87;;
16442;SDS011;8331;51.654;14.376;2022-12-18T10:23:33;20.50;;;11.87;;
16442;SDS011;8331;51.654;14.376;2022-12-18T10:28:30;21.83;;;12.40;;
16442;SDS011;8331;51.654;14.376;2022-12-18T10:30:58;20.60;;;12.27;;
16442;SDS011;8331;51.654;14.376;2022-12-18T10:33:28;18.57;;;12.27;;
16442;SDS011;8331;51.654;14.376;2022-12-18T10:35:55;20.93;;;12.97;;
16442;SDS011;8331;51.654;14.376;2022-12-18T10:38:23;22.17;;;14.03;;
16442;SDS011;8331;51.654;14.376;2022-12-18T10:40:51;19.43;;;11.93;;
16442;SDS011;8331;51.654;14.376;2022-12-18T10:43:22;19.27;;;12.70;;
16442;SDS011;8331;51.654;14.376;2022-12-18T10:48:28;19.58;;;16.00;;
16442;SDS011;8331;51.654;14.376;2022-12-18T10:50:55;19.27;;;12.17;;
16442;SDS011;8331;51.654;14.376;2022-12-18T10:53:39;18.73;;;11.07;;
16442;SDS011;8331;51.654;14.376;2022-12-18T10:56:06;19.33;;;10.97;;
16442;SDS011;8331;51.654;14.376;2022-12-18T10:58:34;18.13;;;11.10;;
16442;SDS011;8331;51.654;14.376;2022-12-18T11:01:14;19.20;;;11.27;;
16442;SDS011;8331;51.654;14.376;2022-12-18T11:06:27;16.23;;;10.67;;
16442;SDS011;8331;51.654;14.376;2022-12-18T11:09:01;21.60;;;11.90;;
16442;SDS011;8331;51.654;14.376;2022-12-18T11:11:37;21.43;;;12.20;;
16442;SDS011;8331;51.654;14.376;2022-12-18T11:14:05;19.50;;;12.13;;
16442;SDS011;8331;51.654;14.376;2022-12-18T11:16:36;17.20;;;11.70;;
16442;SDS011;8331;51.654;14.376;2022-12-18T11:19:13;22.07;;;12.07;;
16442;SDS011;8331;51.654;14.376;2022-12-18T11:21:46;20.93;;;11.53;;
16442;SDS011;8331;51.654;14.376;2022-12-18T11:24:19;17.37;;;11.03;;
16442;SDS011;8331;51.654;14.376;2022-12-18T11:26:47;21.63;;;11.40;;
16442;SDS011;8331;51.654;14.376;2022-12-18T11:29:16;20.63;;;12.63;;
16442;SDS011;8331;51.654;14.376;2022-12-18T11:31:45;19.17;;;11.40;;
16442;SDS011;8331;51.654;14.376;2022-12-18T11:34:26;18.83;;;11.77;;
16442;SDS011;8331;51.654;14.376;2022-12-18T11:36:55;21.37;;;12.67;;
16442;SDS011;8331;51.654;14.376;2022-12-18T11:39:46;22.63;;;12.27;;
16442;SDS011;8331;51.654;14.376;2022-12-18T11:44:59;19.83;;;12.20;;
16442;SDS011;8331;51.654;14.376;2022-12-18T11:49:55;21.07;;;13.00;;
16442;SDS011;8331;51.654;14.376;2022-12-18T11:52:27;21.27;;;11.73;;
16442;SDS011;8331;51.654;14.376;2022-12-18T11:54:56;22.67;;;12.73;;
16442;SDS011;8331;51.654;14.376;2022-12-18T12:00:07;20.00;;;12.20;;
16442;SDS011;8331;51.654;14.376;2022-12-18T12:02:47;23.03;;;12.23;;
16442;SDS011;8331;51.654;14.376;2022-12-18T12:05:28;20.83;;;11.63;;
16442;SDS011;8331;51.654;14.376;2022-12-18T12:08:02;20.30;;;11.17;;
16442;SDS011;8331;51.654;14.376;2022-12-18T12:10:35;18.50;;;11.37;;
16442;SDS011;8331;51.654;14.376;2022-12-18T12:16:00;24.80;;;14.40;;
16442;SDS011;8331;51.654;14.376;2022-12-18T12:23:50;21.60;;;11.37;;
16442;SDS011;8331;51.654;14.376;2022-12-18T12:26:28;18.13;;;11.27;;
16442;SDS011;8331;51.654;14.376;2022-12-18T12:29:01;16.70;;;11.13;;
16442;SDS011;8331;51.654;14.376;2022-12-18T12:31:44;18.43;;;11.37;;
16442;SDS011;8331;51.654;14.376;2022-12-18T12:39:28;21.07;;;11.90;;
16442;SDS011;8331;51.654;14.376;2022-12-18T12:41:56;19.27;;;11.80;;
16442;SDS011;8331;51.654;14.376;2022-12-18T12:44:43;16.43;;;10.50;;
16442;SDS011;8331;51.654;14.376;2022-12-18T12:47:17;20.20;;;12.43;;
16442;SDS011;8331;51.654;14.376;2022-12-18T12:49:45;19.60;;;11.13;;
16442;SDS011;8331;51.654;14.376;2022-12-18T12:52:34;19.47;;;11.13;;
16442;SDS011;8331;51.654;14.376;2022-12-18T12:55:02;22.80;;;13.47;;
16442;SDS011;8331;51.654;14.376;2022-12-18T12:57:44;22.13;;;12.50;;
16442;SDS011;8331;51.654;14.376;2022-12-18T13:00:16;16.20;;;10.90;;
16442;SDS011;8331;51.654;14.376;2022-12-18T13:08:03;19.53;;;11.93;;
16442;SDS011;8331;51.654;14.376;2022-12-18T13:10:36;17.80;;;11.10;;
16442;SDS011;8331;51.654;14.376;2022-12-18T13:13:11;19.00;;;11.63;;
16442;SDS011;8331;51.654;14.376;2022-12-18T13:15:43;18.73;;;11.43;;
16442;SDS011;8331;51.654;14.376;2022-12-18T13:20:39;16.80;;;10.93;;
16442;SDS011;8331;51.654;14.376;2022-12-18T13:23:19;19.50;;;11.00;;
16442;SDS011;8331;51.654;14.376;2022-12-18T13:25:47;18.60;;;11.60;;
16442;SDS011;8331;51.654;14.376;2022-12-18T13:28:14;20.63;;;11.77;;
16442;SDS011;8331;51.654;14.376;2022-12-18T13:30:42;19.77;;;11.40;;
16442;SDS011;8331;51.654;14.376;2022-12-18T13:43:27;18.37;;;11.73;;
16442;SDS011;8331;51.654;14.376;2022-12-18T13:51:29;18.83;;;11.77;;
16442;SDS011;8331;51.654;14.376;2022-12-18T13:53:58;20.57;;;11.93;;
16442;SDS011;8331;51.654;14.376;2022-12-18T13:56:30;22.13;;;12.70;;
16442;SDS011;8331;51.654;14.376;2022-12-18T13:59:05;21.30;;;12.93;;
16442;SDS011;8331;51.654;14.376;2022-12-18T14:01:33;20.80;;;12.80;;
16442;SDS011;8331;51.654;14.376;2022-12-18T14:04:16;21.73;;;13.73;;
16442;SDS011;8331;51.654;14.376;2022-12-18T14:06:45;21.13;;;12.03;;
16442;SDS011;8331;51.654;14.376;2022-12-18T14:09:15;22.10;;;11.77;;
16442;SDS011;8331;51.654;14.376;2022-12-18T14:11:47;21.13;;;12.33;;
16442;SDS011;8331;51.654;14.376;2022-12-18T14:14:15;23.33;;;12.00;;
16442;SDS011;8331;51.654;14.376;2022-12-18T14:16:42;20.37;;;12.20;;
16442;SDS011;8331;51.654;14.376;2022-12-18T14:19:14;20.00;;;12.03;;
16442;SDS011;8331;51.654;14.376;2022-12-18T14:21:45;20.73;;;12.50;;
16442;SDS011;8331;51.654;14.376;2022-12-18T14:24:19;21.80;;;12.07;;
16442;SDS011;8331;51.654;14.376;2022-12-18T14:26:47;19.57;;;11.83;;
16442;SDS011;8331;51.654;14.376;2022-12-18T14:29:20;22.17;;;13.60;;
16442;SDS011;8331;51.654;14.376;2022-12-18T14:32:03;23.20;;;13.33;;
16442;SDS011;8331;51.654;14.376;2022-12-18T14:34:30;20.57;;;13.03;;
16442;SDS011;8331;51.654;14.376;2022-12-18T14:36:57;21.57;;;12.03;;
16442;SDS011;8331;51.654;14.376;2022-12-18T14:39:23;21.90;;;13.30;;
16442;SDS011;8331;51.654;14.376;2022-12-18T14:41:52;23.23;;;13.13;;
16442;SDS011;8331;51.654;14.376;2022-12-18T14:44:19;25.13;;;13.10;;
16442;SDS011;8331;51.654;14.376;2022-12-18T14:46:48;23.63;;;12.37;;
16442;SDS011;8331;51.654;14.376;2022-12-18T14:49:26;23.87;;;13.13;;
16442;SDS011;8331;51.654;14.376;2022-12-18T14:54:20;22.90;;;12.47;;
16442;SDS011;8331;51.654;14.376;2022-12-18T14:56:47;25.90;;;13.57;;
16442;SDS011;8331;51.654;14.376;2022-12-18T14:59:15;24.10;;;13.37;;
16442;SDS011;8331;51.654;14.376;2022-12-18T15:04:32;25.20;;;13.13;;
16442;SDS011;8331;51.654;14.376;2022-12-18T15:09:30;23.40;;;12.63;;
16442;SDS011;8331;51.654;14.376;2022-12-18T15:11:57;22.47;;;12.83;;
16442;SDS011;8331;51.654;14.376;2022-12-18T15:14:31;25.03;;;13.37;;
16442;SDS011;8331;51.654;14.376;2022-12-18T15:16:58;25.23;;;12.90;;
16442;SDS011;8331;51.654;14.376;2022-12-18T15:19:32;22.87;;;12.43;;
16442;SDS011;8331;51.654;14.376;2022-12-18T15:22:00;23.97;;;12.77;;
16442;SDS011;8331;51.654;14.376;2022-12-18T15:24:32;24.43;;;13.30;;
16442;SDS011;8331;51.654;14.376;2022-12-18T15:26:59;23.70;;;13.23;;
16442;SDS011;8331;51.654;14.376;2022-12-18T15:29:26;22.77;;;12.83;;
16442;SDS011;8331;51.654;14.376;2022-12-18T15:31:59;24.37;;;13.67;;
16442;SDS011;8331;51.654;14.376;2022-12-18T15:34:27;22.23;;;12.27;;
16442;SDS011;8331;51.654;14.376;2022-12-18T15:36:54;23.47;;;12.70;;
16442;SDS011;8331;51.654;14.376;2022-12-18T15:39:20;24.70;;;13.40;;
16442;SDS011;8331;51.654;14.376;2022-12-18T15:41:47;25.27;;;13.83;;
16442;SDS011;8331;51.654;14.376;2022-12-18T15:44:32;27.40;;;14.20;;
16442;SDS011;8331;51.654;14.376;2022-12-18T15:46:58;26.23;;;14.03;;
16442;SDS011;8331;51.654;14.376;2022-12-18T15:49:25;36.73;;;19.03;;
16442;SDS011;8331;51.654;14.376;2022-12-18T15:51:52;33.07;;;17.03;;
16442;SDS011;8331;51.654;14.376;2022-12-18T15:54:19;27.27;;;15.83;;
16442;SDS011;8331;51.654;14.376;2022-12-18T15:57:10;30.57;;;17.63;;
16442;SDS011;8331;51.654;14.376;2022-12-18T15:59:49;30.33;;;15.70;;
16442;SDS011;8331;51.654;14.376;2022-12-18T16:02:17;28.63;;;14.70;;
16442;SDS011;8331;51.654;14.376;2022-12-18T16:04:44;33.43;;;16.10;;
16442;SDS011;8331;51.654;14.376;2022-12-18T16:07:12;31.70;;;16.50;;
16442;SDS011;8331;51.654;14.376;2022-12-18T16:09:42;28.77;;;16.60;;
16442;SDS011;8331;51.654;14.376;2022-12-18T16:12:18;32.20;;;17.43;;
16442;SDS011;8331;51.654;14.376;2022-12-18T16:14:45;28.97;;;15.57;;
16442;SDS011;8331;51.654;14.376;2022-12-18T16:17:12;28.27;;;14.77;;
16442;SDS011;8331;51.654;14.376;2022-12-18T16:19:39;26.00;;;13.90;;
16442;SDS011;8331;51.654;14.376;2022-12-18T16:22:05;28.13;;;14.50;;